Glastonbury, United Kingdom
Current Conditions -  °F | °C
As of 6:50 PM on Friday 21 Nov 2014 (Local Time) from EGDY Reporting Station
Haze Haze  
Wind Chill: 52°   Ceiling: 800
Heat Index: 52°   Visibility: 5mi
Dew Point: 50°   Wind: 14mph
Humidity: 94%   Direction: 110°ESE
Pressure: 29.85"   Gusts: NA
Location:  51.15°N, 2.72°W
Report Text: EGDY 211850Z AUTO 11012KT 8000 HZ OVC008/// 11/10 Q1011
Loading
Personal Weather Stations






























Interactive Weather Map New forecast layout! Learn more

10-Day Weather Forecast

Advertisements
Track Severe Weather on mobile